This is the latest recevied weather packets stored in our database for station/object WD0REW. If no packets are shown the sender has not sent any weather packets the latest 10 day(s).
| Time | Temp. | Humidity | Pressure | Rain* | Wind** | Luminosity | Snow |
|---|---|---|---|---|---|---|---|
| 1777641221 | 11.11° C | 62% | 1019.8 hPa | 0 mm | - | 195 W/m² | - |
| 1777640918 | 11.11° C | 63% | 1019.6 hPa | 0 mm | - | 177 W/m² | - |
| 1777640615 | 10.56° C | 66% | 1019.7 hPa | 0 mm | - | 156 W/m² | - |
| 1777640311 | 10.56° C | 66% | 1019.6 hPa | 0 mm | - | 127 W/m² | - |
| 1777640007 | 10.56° C | 71% | 1019.6 hPa | 0 mm | - | 111 W/m² | - |
| 1777639704 | 10° C | 74% | 1019.7 hPa | 0 mm | - | 93 W/m² | - |
| 1777639402 | 9.44° C | 77% | 1019.5 hPa | 0 mm | - | 70 W/m² | - |
| 1777639102 | 8.89° C | 80% | 1019.5 hPa | 0 mm | - | 52 W/m² | - |
| 1777638801 | 8.89° C | 82% | 1019.7 hPa | 0 mm | - | 38 W/m² | - |
| 1777638501 | 8.33° C | 82% | 1019.7 hPa | 0 mm | - | 34 W/m² | - |
| 1777638198 | 8.33° C | 84% | 1019.6 hPa | 0 mm | - | 28 W/m² | - |
| 1777637894 | 7.78° C | 85% | 1019.8 hPa | 0 mm | - | 26 W/m² | - |
| 1777637590 | 7.78° C | 87% | 1019.6 hPa | 0 mm | - | 30 W/m² | - |
| 1777637288 | 7.78° C | 88% | 1019.4 hPa | 0 mm | - | 25 W/m² | - |
| 1777636984 | 7.78° C | 89% | 1019.6 hPa | 0 mm | - | 23 W/m² | - |
| 1777636680 | 7.78° C | 89% | 1019.3 hPa | 0 mm | - | 25 W/m² | - |
| 1777636376 | 7.22° C | 88% | 1019.4 hPa | 0 mm | - | 21 W/m² | - |
| 1777636076 | 7.78° C | 88% | 1019.3 hPa | 0 mm | - | 16 W/m² | - |
| 1777635772 | 7.78° C | 88% | 1019.1 hPa | 0 mm | - | 12 W/m² | - |
| 1777635469 | 7.78° C | 87% | 1019.2 hPa | 0 mm | - | 9 W/m² | - |
| 1777635166 | 7.78° C | 86% | 1019.2 hPa | 0 mm | - | 7 W/m² | - |
| 1777634862 | 7.78° C | 86% | 1019 hPa | 0 mm | - | 5 W/m² | - |
| 1777634560 | 7.78° C | 86% | 1019 hPa | 0 mm | - | 3 W/m² | - |
| 1777634257 | 8.33° C | 87% | 1018.9 hPa | 0 mm | - | 2 W/m² | - |
| 1777633952 | 8.33° C | 87% | 1018.9 hPa | 0 mm | - | 1 W/m² | - |
* Rain latest hour (hover to see other rain measurements)
** Current wind speed in m/s (hover to see current wind gust speed)